IVAO ES Tour IFR-A 2013 Etapa 7

IVAO ES Tour IFR-A 2013 Etapa 7

Zaragoza ( LEZG ) – Santiago de Compostela ( LEST )

Datos generales del vuelo
 Fecha 23-11-2013  Avión  B737-800 winglets
 Ruta SURCO UM601 PPN UN976 DGO UN725 BISMU G255 LOMDA  Nivel de vuelo FL350
 Origen LEZG  Destino LEST
 Velocidad M0.790  Distancia 445Nm
 Distancia real  398Nm ETE 01:05
 ETA 17:50Z  FOB 03:00
 Hora salida 16:30Z Hora llegada 17:55Z
 Pax 156 TOW 67844Kg
 MTOW  78471Kg Fuel 7671Kg
 Fuel utilizado 3983Kg ZFW 60211Kg
Peso carga 7671Kg Peso pasaje 10839Kg
V1 131Knots Vr 141Knots
 V2 150Knots  Vref 148Knots

 

Datos LEZG

Metar: LEZG 231500Z 31020G31KT 280V350 9999 FEW030 10/00 Q1012
Salida: SURCO1D

Datos LEST

Metar: LEST 231600Z 05011KT 020V100 9999 FEW032 10/03 Q1018 NOSIG
Llegada: LOMDA1G
App: ILS Z RWY35 transición STG

 

 

 

Deja una respuesta